createdAt,value
2023-03-27T00:01:19.919Z,99.90
2023-03-27T00:03:49.801Z,99.90
2023-03-27T00:06:20.308Z,99.90
2023-03-27T00:08:51.709Z,99.90
2023-03-27T00:11:20.100Z,99.90
2023-03-27T00:13:52.183Z,99.90
2023-03-27T00:16:21.559Z,99.90
2023-03-27T00:18:49.739Z,99.90
2023-03-27T00:21:18.038Z,99.90
2023-03-27T00:23:46.785Z,99.90
2023-03-27T00:26:16.364Z,99.90
2023-03-27T00:28:44.627Z,99.90
2023-03-27T00:31:14.207Z,99.90
2023-03-27T00:33:43.532Z,99.90
2023-03-27T00:36:12.457Z,99.90
2023-03-27T00:38:41.577Z,99.90
2023-03-27T00:41:10.352Z,99.90
2023-03-27T00:43:44.930Z,99.90
2023-03-27T00:46:38.950Z,99.90
2023-03-27T00:49:10.986Z,99.90
2023-03-27T00:51:41.074Z,99.90
2023-03-27T00:54:11.073Z,99.90
2023-03-27T00:56:39.696Z,99.90
2023-03-27T00:59:13.692Z,99.90
2023-03-27T01:01:43.545Z,99.90
2023-03-27T01:04:12.090Z,99.90
2023-03-27T01:06:42.105Z,99.90
2023-03-27T01:09:11.079Z,99.90
2023-03-27T01:12:06.669Z,99.90
2023-03-27T01:14:42.568Z,99.90
2023-03-27T01:17:27.978Z,99.90
2023-03-27T01:20:14.337Z,99.90
2023-03-27T01:23:36.371Z,99.90
2023-03-27T01:26:40.931Z,99.90
2023-03-27T01:29:16.137Z,99.90
2023-03-27T01:32:05.147Z,99.90
2023-03-27T01:35:01.537Z,99.90
2023-03-27T01:37:55.388Z,99.90
2023-03-27T01:40:30.842Z,99.90
2023-03-27T01:43:05.245Z,99.90
2023-03-27T01:45:40.341Z,99.90
2023-03-27T01:48:14.207Z,99.90
2023-03-27T01:50:47.049Z,99.90
2023-03-27T01:53:20.047Z,99.90
2023-03-27T01:55:54.627Z,99.90
2023-03-27T01:58:28.697Z,99.90
2023-03-27T02:01:01.712Z,99.90
2023-03-27T02:03:34.981Z,99.90
2023-03-27T02:06:07.563Z,99.90
2023-03-27T02:08:43.812Z,99.90
2023-03-27T02:11:37.592Z,99.90
2023-03-27T02:14:10.645Z,99.90
2023-03-27T02:16:46.323Z,99.90
2023-03-27T02:19:21.016Z,99.90
2023-03-27T02:21:50.488Z,99.90
2023-03-27T02:24:19.708Z,99.90
2023-03-27T02:26:59.541Z,99.90
2023-03-27T02:29:42.609Z,99.90
2023-03-27T02:32:21.680Z,99.90
2023-03-27T02:35:04.212Z,99.90
2023-03-27T02:37:44.196Z,99.90
2023-03-27T02:40:30.870Z,99.90
2023-03-27T02:43:23.552Z,99.90
2023-03-27T02:45:58.261Z,99.90
2023-03-27T02:48:35.365Z,99.90
2023-03-27T02:51:07.809Z,99.90
2023-03-27T02:53:40.202Z,99.90
2023-03-27T02:56:11.895Z,99.90
2023-03-27T02:58:46.090Z,99.90
2023-03-27T03:01:31.161Z,99.90
2023-03-27T03:04:20.959Z,99.90
2023-03-27T03:07:06.385Z,99.90
2023-03-27T03:09:40.455Z,99.90
2023-03-27T03:12:15.051Z,99.90
2023-03-27T03:14:47.200Z,99.90
2023-03-27T03:17:17.631Z,99.90
2023-03-27T03:19:46.725Z,99.90
2023-03-27T03:22:15.119Z,99.90
2023-03-27T03:24:43.768Z,99.90
2023-03-27T03:27:15.270Z,99.90
2023-03-27T03:29:56.914Z,99.90
2023-03-27T03:32:30.524Z,99.90
2023-03-27T03:35:01.955Z,99.90
2023-03-27T03:37:38.380Z,99.90
2023-03-27T03:40:11.757Z,99.90
2023-03-27T03:42:46.138Z,99.90
2023-03-27T03:45:15.742Z,99.90
2023-03-27T03:47:44.620Z,99.90
2023-03-27T03:50:14.235Z,99.90
2023-03-27T03:52:43.300Z,99.90
2023-03-27T03:55:13.626Z,99.90
2023-03-27T03:57:47.109Z,99.90
2023-03-27T04:00:22.820Z,99.90
2023-03-27T04:02:54.573Z,99.90
2023-03-27T04:05:24.477Z,99.90
2023-03-27T04:07:55.095Z,99.90
2023-03-27T04:10:42.313Z,99.90
2023-03-27T04:13:36.626Z,99.90
2023-03-27T04:16:17.392Z,99.90
2023-03-27T04:18:54.253Z,99.90
2023-03-27T04:21:26.843Z,99.90
2023-03-27T04:24:02.651Z,99.90
2023-03-27T04:26:43.408Z,99.90
2023-03-27T04:29:31.899Z,99.90
2023-03-27T04:32:01.837Z,99.90
2023-03-27T04:34:50.423Z,99.90
2023-03-27T04:37:56.856Z,99.90
2023-03-27T04:40:39.867Z,99.90
2023-03-27T04:43:08.681Z,99.90
2023-03-27T04:45:36.976Z,99.90
2023-03-27T04:48:07.790Z,99.90
2023-03-27T04:50:37.373Z,99.90
2023-03-27T04:53:05.914Z,99.90
2023-03-27T04:55:41.376Z,99.90
2023-03-27T04:58:10.493Z,99.90
2023-03-27T05:00:39.096Z,99.90
2023-03-27T05:03:28.369Z,99.90
2023-03-27T05:06:04.020Z,99.90
2023-03-27T05:08:34.245Z,99.90
2023-03-27T05:11:02.730Z,99.90
2023-03-27T05:13:39.764Z,99.90
2023-03-27T05:16:10.387Z,99.90
2023-03-27T05:18:46.631Z,99.90
2023-03-27T05:21:15.002Z,99.90
2023-03-27T05:23:43.333Z,99.90
2023-03-27T05:26:11.459Z,99.90
2023-03-27T05:28:59.572Z,99.90
2023-03-27T05:31:29.336Z,99.90
2023-03-27T05:34:27.116Z,99.90
2023-03-27T05:36:57.998Z,99.90
2023-03-27T05:39:29.148Z,99.90
2023-03-27T05:41:57.207Z,99.90
2023-03-27T05:44:25.745Z,99.90
2023-03-27T05:46:54.093Z,99.90
2023-03-27T05:49:32.912Z,99.90
2023-03-27T05:52:10.834Z,99.90
2023-03-27T05:54:39.152Z,99.90
2023-03-27T05:57:11.809Z,99.90
2023-03-27T05:59:41.230Z,99.90
2023-03-27T06:02:23.814Z,99.90
2023-03-27T06:04:59.160Z,99.90
2023-03-27T06:07:31.591Z,99.90
2023-03-27T06:10:05.266Z,99.90
2023-03-27T06:12:33.420Z,99.90
2023-03-27T06:15:11.877Z,99.90
2023-03-27T06:17:48.989Z,99.90
2023-03-27T06:20:21.399Z,99.90
2023-03-27T06:22:55.626Z,99.90
2023-03-27T06:25:33.463Z,99.90
2023-03-27T06:28:02.067Z,99.90
2023-03-27T06:30:31.364Z,99.90
2023-03-27T06:33:22.113Z,99.90
2023-03-27T06:35:52.494Z,99.90
2023-03-27T06:38:26.491Z,99.90
2023-03-27T06:40:55.945Z,99.90
2023-03-27T06:43:25.014Z,99.90
2023-03-27T06:46:03.101Z,99.90
2023-03-27T06:48:51.117Z,99.90
2023-03-27T06:51:23.095Z,99.90
2023-03-27T06:53:53.310Z,99.90
2023-03-27T06:56:21.556Z,99.90
2023-03-27T06:59:08.950Z,99.90
2023-03-27T07:01:39.252Z,99.90
2023-03-27T07:04:26.387Z,99.90
2023-03-27T07:07:06.425Z,99.90
2023-03-27T07:09:40.085Z,99.90
2023-03-27T07:12:10.095Z,99.90
2023-03-27T07:14:39.770Z,99.90
2023-03-27T07:17:09.289Z,99.90
2023-03-27T07:19:51.834Z,99.90
2023-03-27T07:22:26.270Z,99.90
2023-03-27T07:24:55.486Z,99.90
2023-03-27T07:27:25.413Z,99.90
2023-03-27T07:29:55.059Z,99.90
2023-03-27T07:32:36.264Z,99.90
2023-03-27T07:35:06.542Z,99.90
2023-03-27T07:37:58.874Z,99.90
2023-03-27T07:40:47.200Z,99.90
2023-03-27T07:43:35.862Z,99.90
2023-03-27T07:46:06.321Z,99.90
2023-03-27T07:48:37.866Z,99.90
2023-03-27T07:51:13.911Z,99.90
2023-03-27T07:53:44.840Z,99.90
2023-03-27T07:56:26.471Z,99.90
2023-03-27T07:59:33.286Z,99.90
2023-03-27T08:02:16.850Z,99.90
2023-03-27T08:04:44.991Z,99.90
2023-03-27T08:07:13.321Z,99.90
2023-03-27T08:09:45.002Z,99.90
2023-03-27T08:12:13.432Z,99.90
2023-03-27T08:14:47.027Z,99.90
2023-03-27T08:17:22.123Z,99.90
2023-03-27T08:19:50.723Z,99.90
2023-03-27T08:22:21.094Z,99.90
2023-03-27T08:25:11.260Z,99.90
2023-03-27T08:27:40.636Z,99.90
2023-03-27T08:30:10.660Z,99.90
2023-03-27T08:32:41.604Z,99.90
2023-03-27T08:35:12.219Z,99.90
2023-03-27T08:37:42.372Z,99.90
2023-03-27T08:40:53.329Z,99.90
2023-03-27T08:43:40.500Z,99.90
2023-03-27T08:46:17.684Z,99.90
2023-03-27T08:48:51.486Z,99.90
2023-03-27T08:51:26.131Z,99.90
2023-03-27T08:54:00.040Z,99.90
2023-03-27T08:56:32.670Z,99.90
2023-03-27T08:59:01.844Z,99.90
2023-03-27T09:01:38.410Z,99.90
2023-03-27T09:04:24.907Z,99.90
2023-03-27T09:07:01.805Z,99.90
2023-03-27T09:09:45.001Z,99.90
2023-03-27T09:12:24.247Z,99.90
2023-03-27T09:14:58.203Z,99.90
2023-03-27T09:17:31.289Z,99.90
2023-03-27T09:20:18.263Z,99.90
2023-03-27T09:22:52.835Z,99.90
2023-03-27T09:25:45.364Z,99.90
2023-03-27T09:28:32.639Z,99.90
2023-03-27T09:31:21.112Z,99.90
2023-03-27T09:33:50.131Z,99.90
2023-03-27T09:36:18.389Z,99.90
2023-03-27T09:38:52.945Z,99.90
2023-03-27T09:41:30.745Z,99.90
2023-03-27T09:44:09.190Z,99.90
2023-03-27T09:46:44.909Z,99.90
2023-03-27T09:49:17.236Z,99.90
2023-03-27T09:51:51.768Z,99.90
2023-03-27T09:54:30.141Z,99.90
2023-03-27T09:57:06.336Z,99.90
2023-03-27T09:59:38.883Z,99.90
2023-03-27T10:02:20.232Z,99.90
2023-03-27T10:04:59.997Z,99.90
2023-03-27T10:07:33.498Z,99.90
2023-03-27T10:10:21.770Z,99.90
2023-03-27T10:13:14.097Z,99.90
2023-03-27T10:16:00.577Z,99.90
2023-03-27T10:18:42.076Z,99.90
2023-03-27T10:21:21.903Z,99.90
2023-03-27T10:23:51.623Z,99.90
2023-03-27T10:26:44.479Z,99.90
2023-03-27T10:29:23.291Z,99.90
2023-03-27T10:31:54.057Z,99.90
2023-03-27T10:34:54.822Z,99.90
2023-03-27T10:38:02.133Z,99.90
2023-03-27T10:40:53.349Z,99.90
2023-03-27T10:43:40.752Z,99.90
2023-03-27T10:46:13.273Z,99.90
2023-03-27T10:48:50.627Z,99.90
2023-03-27T10:51:43.070Z,99.90
2023-03-27T10:54:26.518Z,99.90
2023-03-27T10:57:02.428Z,99.90
2023-03-27T10:59:41.897Z,99.90
2023-03-27T11:02:23.592Z,99.90
2023-03-27T11:05:00.019Z,99.90
2023-03-27T11:07:33.691Z,99.90
2023-03-27T11:10:12.538Z,99.90
2023-03-27T11:12:43.680Z,98.50
2023-03-27T11:15:18.199Z,98.50
2023-03-27T11:17:53.330Z,99.90
2023-03-27T11:20:37.113Z,99.90
2023-03-27T11:23:29.982Z,99.90
2023-03-27T11:26:28.410Z,99.90
2023-03-27T11:29:04.164Z,99.90
2023-03-27T11:31:46.584Z,99.90
2023-03-27T11:34:28.837Z,99.90
2023-03-27T11:37:05.130Z,99.90
2023-03-27T11:39:44.788Z,99.90
2023-03-27T11:42:18.817Z,99.90
2023-03-27T11:44:49.804Z,99.90
2023-03-27T11:47:55.726Z,99.90
2023-03-27T11:50:31.786Z,99.90
2023-03-27T11:53:29.491Z,99.90
2023-03-27T11:56:37.588Z,99.90
2023-03-27T11:59:43.810Z,99.90
2023-03-27T12:02:35.254Z,99.90
2023-03-27T12:05:11.083Z,99.60
2023-03-27T12:07:53.252Z,98.30
2023-03-27T12:10:29.517Z,97.70
2023-03-27T12:13:40.604Z,97.90
2023-03-27T12:16:42.034Z,97.90
2023-03-27T12:19:38.188Z,99.90
2023-03-27T12:22:34.420Z,99.90
2023-03-27T12:25:22.855Z,99.90
2023-03-27T12:28:25.817Z,99.90
2023-03-27T12:31:07.907Z,99.90
2023-03-27T12:33:52.107Z,99.90
2023-03-27T12:36:24.351Z,99.90
2023-03-27T12:38:54.486Z,99.90
2023-03-27T12:41:25.278Z,99.90
2023-03-27T12:44:21.585Z,99.90
2023-03-27T12:47:09.021Z,99.90
2023-03-27T12:49:47.992Z,99.90
2023-03-27T12:52:25.525Z,99.90
2023-03-27T12:55:45.239Z,99.90
2023-03-27T12:58:35.019Z,99.90
2023-03-27T13:01:52.864Z,99.90
2023-03-27T13:04:44.180Z,99.90
2023-03-27T13:07:19.632Z,99.90
2023-03-27T13:10:36.712Z,99.90
2023-03-27T13:13:31.692Z,99.90
2023-03-27T13:16:28.237Z,99.90
2023-03-27T13:19:20.970Z,99.90
2023-03-27T13:22:21.242Z,99.90
2023-03-27T13:25:10.838Z,99.90
2023-03-27T13:27:50.922Z,99.90
2023-03-27T13:30:43.536Z,99.90
2023-03-27T13:33:41.978Z,99.90
2023-03-27T13:36:17.703Z,99.90
2023-03-27T13:39:13.310Z,99.90
2023-03-27T13:42:02.284Z,99.90
2023-03-27T13:44:58.707Z,99.90
2023-03-27T13:48:10.908Z,99.90
2023-03-27T13:51:02.985Z,99.90
2023-03-27T13:53:46.817Z,99.90
2023-03-27T13:56:45.527Z,99.90
2023-03-27T14:00:03.198Z,99.90
2023-03-27T14:03:15.330Z,99.90
2023-03-27T14:06:26.017Z,99.90
2023-03-27T14:09:06.763Z,99.90
2023-03-27T14:11:51.943Z,99.90
2023-03-27T14:14:58.436Z,99.90
2023-03-27T14:17:42.032Z,99.90
2023-03-27T14:20:31.880Z,99.90
2023-03-27T14:23:06.783Z,99.90
2023-03-27T14:26:01.913Z,99.90
2023-03-27T14:28:36.747Z,98.70
2023-03-27T14:31:10.516Z,98.50
2023-03-27T14:34:04.270Z,99.20
2023-03-27T14:36:41.942Z,97.90
2023-03-27T14:39:27.223Z,97.40
2023-03-27T14:42:04.347Z,97.40
2023-03-27T14:44:36.237Z,96.60
2023-03-27T14:47:17.582Z,96.70
2023-03-27T14:49:49.065Z,96.10
2023-03-27T14:52:31.033Z,95.80
2023-03-27T14:55:19.034Z,95.10
2023-03-27T14:57:57.995Z,95.60
2023-03-27T15:00:34.425Z,95.50
2023-03-27T15:03:07.214Z,94.50
2023-03-27T15:05:36.427Z,94.40
2023-03-27T15:08:12.882Z,94.00
2023-03-27T15:10:59.805Z,92.80
2023-03-27T15:13:41.169Z,92.80
2023-03-27T15:16:25.052Z,93.30
2023-03-27T15:19:04.714Z,93.60
2023-03-27T15:21:44.448Z,99.10
2023-03-27T15:24:17.215Z,99.90
2023-03-27T15:26:47.889Z,99.90
2023-03-27T15:29:24.886Z,99.90
2023-03-27T15:31:54.430Z,99.90
2023-03-27T15:34:34.273Z,99.90
2023-03-27T15:37:09.959Z,99.90
2023-03-27T15:39:58.580Z,99.90
2023-03-27T15:42:32.384Z,99.90
2023-03-27T15:45:05.865Z,99.90
2023-03-27T15:47:34.100Z,99.90
2023-03-27T15:50:18.954Z,99.90
2023-03-27T15:52:51.464Z,99.90
2023-03-27T15:55:39.415Z,99.90
2023-03-27T15:58:24.546Z,99.90
2023-03-27T16:00:59.214Z,99.90
2023-03-27T16:03:31.111Z,99.90
2023-03-27T16:06:00.485Z,99.90
2023-03-27T16:08:33.694Z,99.90
2023-03-27T16:11:02.538Z,99.90
2023-03-27T16:13:35.960Z,99.90
2023-03-27T16:16:19.326Z,99.90
2023-03-27T16:18:51.217Z,99.90
2023-03-27T16:21:23.109Z,99.90
2023-03-27T16:23:51.503Z,99.90
2023-03-27T16:26:24.653Z,99.90
2023-03-27T16:28:52.764Z,99.90
2023-03-27T16:31:22.358Z,99.90
2023-03-27T16:33:51.092Z,99.90
2023-03-27T16:36:24.444Z,99.90
2023-03-27T16:38:52.727Z,99.90
2023-03-27T16:41:23.277Z,99.90
2023-03-27T16:43:51.820Z,99.90
2023-03-27T16:46:25.137Z,99.90
2023-03-27T16:48:54.898Z,99.90
2023-03-27T16:51:25.611Z,99.90
2023-03-27T16:53:53.935Z,99.90
2023-03-27T16:56:22.870Z,99.90
2023-03-27T16:58:50.979Z,99.70
2023-03-27T17:01:19.185Z,98.00
2023-03-27T17:03:48.819Z,96.10
2023-03-27T17:06:19.201Z,95.90
2023-03-27T17:08:49.150Z,96.40
2023-03-27T17:11:17.317Z,96.60
2023-03-27T17:13:49.156Z,96.60
2023-03-27T17:16:17.559Z,97.30
2023-03-27T17:18:45.700Z,97.50
2023-03-27T17:21:15.303Z,98.10
2023-03-27T17:23:43.480Z,98.70
2023-03-27T17:26:16.059Z,99.00
2023-03-27T17:28:45.417Z,99.50
2023-03-27T17:31:13.685Z,99.90
2023-03-27T17:33:41.880Z,99.90
2023-03-27T17:36:10.970Z,99.90
2023-03-27T17:38:41.540Z,99.90
2023-03-27T17:41:10.298Z,99.90
2023-03-27T17:43:38.361Z,99.90
2023-03-27T17:46:07.130Z,99.90
2023-03-27T17:48:35.920Z,99.90
2023-03-27T17:51:09.377Z,99.90
2023-03-27T17:53:38.489Z,99.90
2023-03-27T17:56:09.489Z,99.90
2023-03-27T17:58:37.968Z,99.90
2023-03-27T18:01:16.731Z,99.90
2023-03-27T18:03:45.508Z,99.90
2023-03-27T18:06:14.173Z,99.90
2023-03-27T18:08:42.471Z,99.90
2023-03-27T18:11:13.381Z,99.90
2023-03-27T18:13:42.085Z,99.90
2023-03-27T18:16:12.058Z,99.90
2023-03-27T18:18:41.132Z,99.90
2023-03-27T18:21:11.600Z,99.90
2023-03-27T18:23:46.025Z,99.90
2023-03-27T18:26:17.424Z,99.90
2023-03-27T18:28:45.799Z,99.90
2023-03-27T18:31:13.955Z,99.90
2023-03-27T18:33:42.062Z,99.90
2023-03-27T18:36:11.875Z,99.90
2023-03-27T18:38:42.420Z,99.90
2023-03-27T18:41:10.641Z,99.90
2023-03-27T18:43:40.390Z,99.90
2023-03-27T18:46:11.752Z,99.90
2023-03-27T18:48:40.101Z,99.90
2023-03-27T18:51:08.620Z,99.90
2023-03-27T18:53:36.815Z,99.90
2023-03-27T18:56:06.393Z,99.90
2023-03-27T18:58:35.896Z,99.90
2023-03-27T19:01:09.354Z,99.90
2023-03-27T19:03:39.281Z,99.90
2023-03-27T19:06:09.501Z,99.90
2023-03-27T19:08:38.504Z,99.90
2023-03-27T19:11:06.923Z,99.90
2023-03-27T19:13:53.699Z,99.90
2023-03-27T19:16:35.422Z,99.90
2023-03-27T19:19:16.433Z,99.90
2023-03-27T19:21:54.378Z,99.90
2023-03-27T19:24:31.971Z,99.90
2023-03-27T19:27:01.212Z,99.90
2023-03-27T19:29:29.561Z,99.90
2023-03-27T19:31:59.586Z,99.90
2023-03-27T19:34:40.085Z,99.90
2023-03-27T19:37:10.948Z,99.90
2023-03-27T19:39:39.311Z,99.90
2023-03-27T19:42:07.501Z,99.90
2023-03-27T19:44:39.290Z,99.90
2023-03-27T19:47:09.749Z,99.90
2023-03-27T19:49:38.103Z,99.90
2023-03-27T19:52:32.442Z,99.90
2023-03-27T19:55:00.629Z,99.90
2023-03-27T19:57:29.626Z,99.90
2023-03-27T19:59:57.810Z,99.90
2023-03-27T20:02:28.203Z,99.90
2023-03-27T20:04:59.483Z,99.90
2023-03-27T20:07:27.966Z,99.90
2023-03-27T20:09:56.511Z,99.90
2023-03-27T20:12:25.064Z,99.90
2023-03-27T20:15:02.971Z,99.90
2023-03-27T20:17:44.041Z,99.90
2023-03-27T20:20:12.418Z,99.90
2023-03-27T20:22:56.893Z,99.90
2023-03-27T20:25:28.325Z,99.90
2023-03-27T20:27:57.346Z,99.90
2023-03-27T20:30:26.572Z,99.90
2023-03-27T20:32:56.544Z,99.90
2023-03-27T20:35:25.758Z,99.90
2023-03-27T20:37:58.002Z,99.90
2023-03-27T20:40:32.889Z,99.90
2023-03-27T20:43:05.992Z,99.90
2023-03-27T20:45:34.402Z,99.90
2023-03-27T20:48:04.548Z,99.90
2023-03-27T20:50:35.894Z,99.90
2023-03-27T20:53:04.574Z,99.90
2023-03-27T20:55:37.572Z,99.90
2023-03-27T20:58:13.839Z,99.90
2023-03-27T21:00:43.672Z,99.90
2023-03-27T21:03:17.034Z,99.90
2023-03-27T21:05:45.303Z,99.90
2023-03-27T21:08:13.893Z,99.90
2023-03-27T21:10:42.512Z,99.90
2023-03-27T21:13:10.547Z,99.90
2023-03-27T21:15:38.555Z,99.90
2023-03-27T21:18:06.785Z,99.90
2023-03-27T21:20:36.291Z,99.90
2023-03-27T21:23:04.557Z,99.90
2023-03-27T21:25:34.598Z,99.90
2023-03-27T21:28:06.507Z,99.90
2023-03-27T21:30:47.129Z,99.90
2023-03-27T21:33:17.146Z,99.90
2023-03-27T21:35:49.158Z,99.90
2023-03-27T21:38:19.096Z,99.90
2023-03-27T21:40:48.123Z,99.90
2023-03-27T21:43:16.583Z,99.90
2023-03-27T21:45:46.663Z,99.90
2023-03-27T21:48:14.897Z,99.90
2023-03-27T21:50:43.024Z,99.90
2023-03-27T21:53:13.519Z,99.90
2023-03-27T21:55:42.474Z,99.90
2023-03-27T21:58:11.224Z,99.90
2023-03-27T22:00:39.293Z,99.90
2023-03-27T22:03:07.491Z,99.90
2023-03-27T22:05:37.559Z,99.90
2023-03-27T22:08:06.276Z,99.90
2023-03-27T22:10:36.112Z,99.90
2023-03-27T22:13:04.716Z,99.90
2023-03-27T22:15:33.049Z,99.90
2023-03-27T22:18:03.408Z,99.90
2023-03-27T22:20:31.848Z,99.90
2023-03-27T22:22:59.989Z,99.90
2023-03-27T22:25:28.012Z,99.90
2023-03-27T22:27:57.877Z,99.90
2023-03-27T22:30:27.294Z,99.90
2023-03-27T22:32:55.383Z,99.90
2023-03-27T22:35:23.506Z,99.90
2023-03-27T22:37:51.600Z,99.90
2023-03-27T22:40:19.918Z,99.90
2023-03-27T22:42:48.306Z,99.90
2023-03-27T22:45:18.083Z,99.90
2023-03-27T22:47:46.177Z,99.90
2023-03-27T22:50:18.968Z,99.90
2023-03-27T22:52:46.994Z,99.90
2023-03-27T22:55:15.298Z,99.90
2023-03-27T22:57:45.043Z,99.90
2023-03-27T23:00:14.514Z,99.90
2023-03-27T23:02:44.130Z,99.90
2023-03-27T23:05:12.369Z,99.90
2023-03-27T23:07:40.619Z,99.90
2023-03-27T23:10:10.100Z,99.90
2023-03-27T23:12:38.341Z,99.90
2023-03-27T23:15:07.024Z,99.90
2023-03-27T23:17:35.098Z,99.90
2023-03-27T23:20:05.000Z,99.90
2023-03-27T23:22:33.235Z,99.90
2023-03-27T23:25:01.419Z,99.90
2023-03-27T23:27:29.654Z,99.90
2023-03-27T23:29:57.714Z,99.90
2023-03-27T23:32:26.002Z,99.90
2023-03-27T23:34:54.071Z,99.90
2023-03-27T23:37:24.038Z,99.90
2023-03-27T23:39:52.063Z,99.90
2023-03-27T23:42:20.386Z,99.90
2023-03-27T23:44:48.841Z,99.90
2023-03-27T23:47:17.339Z,99.90
2023-03-27T23:49:45.486Z,99.90
2023-03-27T23:52:14.053Z,99.90
2023-03-27T23:54:43.520Z,99.90
2023-03-27T23:57:11.751Z,99.90
2023-03-27T23:59:39.860Z,99.90
